Logo AVAMET
Benvolgut visitant, si us plau, ingressa Recuperar contrasenya
AVAMET paisatges

Onda centre

Dades diàries. Acumulats / Últims 30 dies disponibles

Data Temperatura (°C) Humitat rel. (%) Pressió rel. (hPa) Vent (km/h) Precipitació
Mínima Mitjana Màxima Amplitud
tèrmica
Mínima Mitjana Màxima Mínima Mitjana Màxima Predom. Mitjana Ràfega
màxima
Total
(mm)
Índex-n
Mínima Mitjana Màxima Mínima Mitjana Màxima n
0 a 1
P0 max
mm 5'
Dades mensuals acumulades fins l'últim dia disponible
11/2020 6,3 11,3 15,4 14,6 15,2 19,1 24,0 17,7 24 72 98 1.002 1.021 1.030   2,9 24,1 150,1
Dades anuals acumulades fins l'últim dia disponible
2020 3,7 14,5 24,3 18,6 8,6 23,4 34,4 30,7 4 63 100 989 1.017 1.034   3,2 53,6 649,7
Últims 30 dies disponibles
29-11-2020 10,9     13,6     18,8 7,9 48 71 94 1.010 1.015 1.019 SSE 2,4 12,9 0,5
28-11-2020 10,7     12,9     17,1 6,4 58 78 97 1.002 1.005 1.011 SSE 1,9 9,3 0,4
27-11-2020 11,0     14,6     17,1 6,1 80 89 98 1.004 1.008 1.013 NNE 4,7 22,2 19,1
26-11-2020 11,6     13,6     15,2 3,6 86 91 96 1.013 1.014 1.016 OSO 2,6 12,9 9,4 0,71 2,80
25-11-2020 7,3     11,4     17,3 10,0 42 67 91 1.014 1.016 1.019 S 3,0 9,3 0,0
24-11-2020 7,6     10,9     15,8 8,2 50 70 90 1.018 1.022 1.025 S 2,9 9,3 0,0
23-11-2020 6,9     11,1     16,9 10,0 46 68 89 1.024 1.027 1.028 S 3,9 14,8 0,0
22-11-2020 6,3     10,9     16,6 10,3 43 65 86 1.024 1.027 1.029 S 3,0 11,1 0,0
21-11-2020 7,7     11,7     16,9 9,2 35 59 82 1.026 1.028 1.029 S 2,8 9,3 0,0
20-11-2020 10,0     14,1     19,6 9,6 24 45 65 1.024 1.026 1.028 S 2,5 7,4 0,0
19-11-2020 11,8     16,4     22,5 10,7 49 69 89 1.026 1.028 1.030 N 3,1 7,4 0,0
18-11-2020 12,5     15,7     20,0 7,5 64 78 92 1.024 1.026 1.028 NNO 3,7 3,7 0,0
17-11-2020 11,7     15,7     19,8 8,1 54 74 93 1.024 1.025 1.027 SSO 2,8 5,5 0,0
16-11-2020 14,7     18,4     24,0 9,3 46 66 86 1.016 1.021 1.025 SSO 1,9 1,9 0,0
15-11-2020 12,7     17,7     23,3 10,6 41 68 95 1.016 1.018 1.019 SE 3,0 7,4 0,0
14-11-2020 13,1     15,1     17,3 4,2 73 84 95 1.019 1.020 1.021 SE 3,7 3,7 0,0
13-11-2020 11,8     15,0     19,2 7,4 53 74 94 1.019 1.021 1.022 SE 3,7 3,7 0,0
12-11-2020 11,3     14,4     19,5 8,2 49 71 92 1.020 1.022 1.024 SE 3,1 3,7 0,0
11-11-2020 11,3     14,8     20,2 8,9 53 72 90 1.021 1.024 1.027 SE 2,6 12,9 0,0
10-11-2020 12,2     15,9     20,5 8,3 42 66 89 1.022 1.025 1.027 ESE 2,6 16,6 0,0
09-11-2020 11,2     14,9     19,7 8,5 57 72 87 1.020 1.021 1.023 ESE 2,6 18,5 0,0
08-11-2020 11,4     14,8     19,5 8,1 50 70 89 1.020 1.022 1.024 SE 2,7 9,3 0,0
07-11-2020 13,3     16,7     19,8 6,5 58 78 98 1.013 1.019 1.023 NNE 3,0 20,4 16,5 0,37 3,10
06-11-2020 15,4     17,2     18,4 3,0 92 95 98 1.019 1.022 1.023 N 2,5 16,6 1,0
05-11-2020 11,8     13,6     15,7 3,9 90 94 98 1.021 1.023 1.025 N 3,0 24,1 53,2 0,51 6,40
04-11-2020 10,5     12,2     16,4 5,9 58 78 98 1.020 1.021 1.024 SE 1,7 12,9 50,0 0,43 1,30
03-11-2020 12,5     16,5     21,0 8,5 49 65 80 1.021 1.023 1.025 S 2,3 14,8 0,0
02-11-2020 12,9     16,9     22,3 9,4 37 60 83 1.020 1.021 1.023 S 2,8 11,1 0,0
01-11-2020 14,7     18,1     23,5 8,8 33 51 68 1.020 1.022 1.024 S 2,8 11,1 0,0
31-10-2020 12,5     17,0     22,5 10,0 33 57 81 1.022 1.023 1.025 S 3,0 12,9 0,0
Últims 13 mesos disponibles
10/2020 9,8 13,9 18,1 18,0 18,8 23,2 29,1 19,3 27 51 77 995 1.016 1.025 SSO 3,9 29,6 2,3
09/2020 14,3 18,1 20,7 22,3 23,7 27,6 31,3 17,0 27 56 80 1.009 1.016 1.022 SE 4,0 25,7 25,8
08/2020 15,8 21,7 24,3 26,1 26,4 30,9 33,2 17,4 45 59 71 1.003 1.013 1.018 S 4,1 27,8 34,1
07/2020 19,0 21,4 23,9 25,9 27,5 30,6 34,4 15,4 27 59 75 1.010 1.015 1.019 ESE 4,2 25,9 0,6
06/2020 14,4 18,0 20,6 22,4 21,6 27,1 31,5 17,1 36 59 78 1.003 1.013 1.020 SE 3,2 40,2 38,9
05/2020 11,8 16,0 20,0 20,8 17,8 25,9 31,3 19,5 37 58 74 1.003 1.015 1.026 SE 3,0 31,4 24,3
04/2020 7,7 11,8 19,0 15,3 14,0 19,9 26,9 19,2 31 72 96 1.003 1.014 1.025 SE 2,3 24,1 103,2
03/2020 5,3 10,0 15,5 13,6 10,3 17,5 25,2 19,9 36 68 95 1.003 1.016 1.026 SE 2,8 53,6 170,1
02/2020 6,1 10,0 15,4 14,1 13,7 19,7 25,3 19,2 41 65 97 1.011 1.024 1.031 SSE 2,1 24,1 0,0
01/2020 3,7 7,3 13,5 10,6 8,6 15,5 21,7 18,0 56 71 92 1.017 1.024 1.031 SSE 1,9 33,3 100,3
12/2019 4,7 10,2 16,5 13,4 11,8 17,4 23,7 19,0 41 67 99 1.000 1.018 1.032 SSE 2,5 37,0 109,2
11/2019 5,2 11,6 18,5 15,1 14,7 19,1 27,5 22,3 38 51 79 996 1.010 1.018 SSE 3,6 31,4 1,3
10/2019 10,1 15,7 19,3 19,4 14,7 24,1 29,0 18,9 44 66 88 1.006 1.016 1.021 SE 2,6 24,1 19,7
Tots els anys disponibles
2019 3,1 13,8 25,5 18,0 11,6 22,9 38,5 35,4 25 60 99 993 1.017 1.034 SE 3,0 50,0 455,3
2018 1,4 14,0 26,1 18,3 8,2 22,7 35,7 34,3 26 61 100 993 1.016 1.035 0,0 41,0 752,5
2017 0,0 13,7 23,7 18,2 7,9 22,8 36,7 36,7 25 59 93 995 1.019 1.036 0,0 44,0 433,7
2016 2,8 13,9 26,0 18,2 10,3 22,6 35,8 33,0 41 57 69 1.014 1.017 1.027 76,0 557,3
2015 1,0 13,9 25,0 17,2 8,0 22,9 40,6 39,6 17 53 87 1.004 1.022 1.037 43,0 747,6
2014 2,3 14,3 24,7 19,1 12,0 24,0 34,9 32,6 55,0 351,2
2013 417,4
2012 327,8
2011 703,6
Temperatura (°C)
Humitat relativa (%)
Velocitat del vent i ràfega màxima (km/h)
Direcció del vent (°)
Pressió (hPa)
Precipitació (mm)
Nota sobre les dades: s'avisa a l'usuari de la provisionalitat i no oficialitat d'aquestes dades
Logo AVAMET blanc
Web allotjada a Sollutia
Llicència de Creative CommonsLa web d'AVAMET i els seus continguts estan subjectes a una llicència de
Reconeixement - No Comercial - Compartir igual
Avís legal - Política de privacitat - Política de cookies
NOVES ESTACIONS: València - l'Olivereta (Soci), Xixona - Carrasqueta/Bugaia (Soci), l'Alcúdia de Crespins/Canals - la Muntanyeta (Soci), Utiel - est (Soci), Xàbia - Cansalades (Soci), Alginet (Soci), Quatretondeta (Ajuntament Soci) Enguera - Benali (Soci/ADENE), la Vall d'Alba - sud (Ajuntament Soci), El Fondó dels Frares (Estació pròpia d'AVAMET nº34) - - -